createdAt,value
2018-06-28T00:00:01.555Z,15.90
2018-06-28T00:01:05.127Z,15.90
2018-06-28T00:02:09.602Z,15.90
2018-06-28T00:03:13.223Z,15.90
2018-06-28T00:04:16.821Z,15.80
2018-06-28T00:05:20.374Z,15.80
2018-06-28T00:06:24.047Z,15.80
2018-06-28T00:07:27.594Z,15.80
2018-06-28T00:08:31.777Z,15.80
2018-06-28T00:09:35.346Z,15.80
2018-06-28T00:10:38.892Z,15.80
2018-06-28T00:11:42.405Z,15.80
2018-06-28T00:12:46.136Z,15.70
2018-06-28T00:13:49.706Z,15.70
2018-06-28T00:14:53.246Z,15.70
2018-06-28T00:15:56.938Z,15.70
2018-06-28T00:17:00.555Z,15.70
2018-06-28T00:18:04.300Z,15.70
2018-06-28T00:19:07.921Z,15.60
2018-06-28T00:20:11.579Z,15.60
2018-06-28T00:21:15.111Z,15.60
2018-06-28T00:22:18.821Z,15.60
2018-06-28T00:23:22.400Z,15.60
2018-06-28T00:24:26.440Z,15.60
2018-06-28T00:25:30.052Z,15.60
2018-06-28T00:26:33.565Z,15.60
2018-06-28T00:28:40.365Z,15.50
2018-06-28T00:29:43.914Z,15.50
2018-06-28T00:30:47.542Z,15.50
2018-06-28T00:31:51.146Z,15.50
2018-06-28T00:32:54.684Z,15.50
2018-06-28T00:33:58.222Z,15.50
2018-06-28T00:35:01.899Z,15.50
2018-06-28T00:36:05.449Z,15.40
2018-06-28T00:37:08.982Z,15.40
2018-06-28T00:38:12.597Z,15.40
2018-06-28T00:39:16.078Z,15.40
2018-06-28T00:40:19.656Z,15.40
2018-06-28T00:41:23.212Z,15.40
2018-06-28T00:42:26.746Z,15.40
2018-06-28T00:43:30.421Z,15.30
2018-06-28T00:44:34.069Z,15.30
2018-06-28T00:45:37.699Z,15.30
2018-06-28T00:46:41.374Z,15.30
2018-06-28T00:47:44.942Z,15.20
2018-06-28T00:48:48.583Z,15.20
2018-06-28T00:49:52.117Z,15.20
2018-06-28T00:50:55.656Z,15.20
2018-06-28T00:51:59.254Z,15.20
2018-06-28T00:53:02.813Z,15.20
2018-06-28T00:54:06.472Z,15.20
2018-06-28T00:55:10.066Z,15.20
2018-06-28T00:56:13.686Z,15.20
2018-06-28T00:57:17.306Z,15.10
2018-06-28T00:58:20.850Z,15.10
2018-06-28T00:59:24.375Z,15.10
2018-06-28T01:00:28.050Z,15.10
2018-06-28T01:01:31.585Z,15.10
2018-06-28T01:02:35.258Z,15.00
2018-06-28T01:03:38.826Z,15.00
2018-06-28T01:04:42.403Z,15.00
2018-06-28T01:05:46.050Z,14.90
2018-06-28T01:06:49.712Z,14.90
2018-06-28T01:07:53.293Z,14.90
2018-06-28T01:08:56.896Z,14.90
2018-06-28T01:10:00.405Z,14.90
2018-06-28T01:11:04.091Z,14.90
2018-06-28T01:12:07.658Z,14.90
2018-06-28T01:13:11.427Z,14.90
2018-06-28T01:14:15.023Z,14.80
2018-06-28T01:15:18.642Z,14.80
2018-06-28T01:16:22.328Z,14.80
2018-06-28T01:17:25.998Z,14.80
2018-06-28T01:18:29.574Z,14.80
2018-06-28T01:19:33.216Z,14.80
2018-06-28T01:20:36.896Z,14.80
2018-06-28T01:21:40.486Z,14.80
2018-06-28T01:22:44.086Z,14.70
2018-06-28T01:23:47.683Z,14.70
2018-06-28T01:25:54.593Z,14.60
2018-06-28T01:26:58.485Z,14.60
2018-06-28T01:28:02.290Z,14.60
2018-06-28T01:29:05.949Z,14.60
2018-06-28T01:31:13.162Z,14.50
2018-06-28T01:32:16.738Z,14.50
2018-06-28T01:33:20.350Z,14.40
2018-06-28T01:34:23.871Z,14.40
2018-06-28T01:35:27.533Z,14.40
2018-06-28T01:36:31.204Z,14.40
2018-06-28T01:37:34.819Z,14.40
2018-06-28T01:38:38.487Z,14.40
2018-06-28T01:39:42.094Z,14.30
2018-06-28T01:40:45.925Z,14.30
2018-06-28T01:42:00.755Z,14.30
2018-06-28T01:43:29.510Z,14.30
2018-06-28T01:44:33.206Z,14.30
2018-06-28T01:45:36.932Z,14.40
2018-06-28T01:46:40.675Z,14.30
2018-06-28T01:47:44.270Z,14.30
2018-06-28T01:48:47.964Z,14.30
2018-06-28T01:49:51.890Z,14.30
2018-06-28T01:50:55.656Z,14.20
2018-06-28T01:51:59.318Z,14.30
2018-06-28T01:53:02.919Z,14.20
2018-06-28T01:54:06.695Z,14.20
2018-06-28T01:55:10.461Z,14.20
2018-06-28T01:56:14.279Z,14.20
2018-06-28T01:57:18.121Z,14.20
2018-06-28T01:58:21.820Z,14.20
2018-06-28T01:59:25.390Z,14.20
2018-06-28T02:00:29.008Z,14.20
2018-06-28T02:01:32.601Z,14.20
2018-06-28T02:02:36.250Z,14.20
2018-06-28T02:03:39.792Z,14.20
2018-06-28T02:04:43.482Z,14.10
2018-06-28T02:05:48.177Z,14.10
2018-06-28T02:06:52.045Z,14.10
2018-06-28T02:07:55.582Z,14.10
2018-06-28T02:08:59.173Z,14.10
2018-06-28T02:10:02.981Z,14.10
2018-06-28T02:11:06.759Z,14.10
2018-06-28T02:12:10.459Z,14.00
2018-06-28T02:13:14.190Z,14.00
2018-06-28T02:14:17.842Z,14.10
2018-06-28T02:15:21.618Z,14.10
2018-06-28T02:16:25.224Z,14.10
2018-06-28T02:17:28.786Z,14.10
2018-06-28T02:18:32.777Z,14.10
2018-06-28T02:19:36.374Z,14.00
2018-06-28T02:20:40.416Z,14.10
2018-06-28T02:21:43.994Z,14.00
2018-06-28T02:22:47.525Z,14.00
2018-06-28T02:23:51.145Z,14.00
2018-06-28T02:24:54.946Z,14.00
2018-06-28T02:25:58.565Z,14.00
2018-06-28T02:27:02.106Z,14.00
2018-06-28T02:28:05.803Z,13.90
2018-06-28T02:29:09.394Z,13.90
2018-06-28T02:30:13.091Z,13.90
2018-06-28T02:31:16.923Z,13.90
2018-06-28T02:32:20.487Z,13.80
2018-06-28T02:33:24.084Z,13.80
2018-06-28T02:34:27.765Z,13.80
2018-06-28T02:35:31.361Z,13.80
2018-06-28T02:36:34.954Z,13.80
2018-06-28T02:37:38.550Z,13.80
2018-06-28T02:38:42.190Z,13.70
2018-06-28T02:39:45.750Z,13.70
2018-06-28T02:40:49.333Z,13.70
2018-06-28T02:41:52.927Z,13.70
2018-06-28T02:42:56.467Z,13.70
2018-06-28T02:44:00.267Z,13.70
2018-06-28T02:45:04.106Z,13.70
2018-06-28T02:46:07.919Z,13.70
2018-06-28T02:47:11.742Z,13.70
2018-06-28T02:48:16.122Z,13.70
2018-06-28T02:49:19.727Z,13.70
2018-06-28T02:50:23.267Z,13.70
2018-06-28T02:51:26.905Z,13.70
2018-06-28T02:52:30.668Z,13.70
2018-06-28T02:53:34.319Z,13.70
2018-06-28T02:54:37.879Z,13.70
2018-06-28T02:55:41.448Z,13.60
2018-06-28T02:56:45.184Z,13.70
2018-06-28T02:57:48.677Z,13.60
2018-06-28T02:58:52.336Z,13.60
2018-06-28T02:59:55.987Z,13.60
2018-06-28T03:00:59.809Z,13.70
2018-06-28T03:02:03.350Z,13.70
2018-06-28T03:03:06.883Z,13.70
2018-06-28T03:04:10.766Z,13.70
2018-06-28T03:05:14.604Z,13.70
2018-06-28T03:06:18.336Z,13.60
2018-06-28T03:07:22.010Z,13.60
2018-06-28T03:08:25.791Z,13.60
2018-06-28T03:09:29.452Z,13.60
2018-06-28T03:10:33.086Z,13.60
2018-06-28T03:11:36.920Z,13.60
2018-06-28T03:12:40.438Z,13.60
2018-06-28T03:14:47.325Z,13.60
2018-06-28T03:16:54.314Z,13.60
2018-06-28T03:17:57.879Z,13.60
2018-06-28T03:19:01.443Z,13.60
2018-06-28T03:20:05.069Z,13.60
2018-06-28T03:21:08.584Z,13.60
2018-06-28T03:22:12.389Z,13.60
2018-06-28T03:23:15.958Z,13.60
2018-06-28T03:24:19.928Z,13.60
2018-06-28T03:25:23.697Z,13.60
2018-06-28T03:26:27.258Z,13.70
2018-06-28T03:27:30.864Z,13.70
2018-06-28T03:28:34.396Z,13.70
2018-06-28T03:29:37.940Z,13.70
2018-06-28T03:30:41.477Z,13.70
2018-06-28T03:31:45.749Z,13.70
2018-06-28T03:32:49.375Z,13.70
2018-06-28T03:33:52.889Z,13.70
2018-06-28T03:34:56.391Z,13.70
2018-06-28T03:35:59.942Z,13.70
2018-06-28T03:37:03.499Z,13.70
2018-06-28T03:38:07.122Z,13.80
2018-06-28T03:39:12.703Z,13.80
2018-06-28T03:40:16.502Z,13.80
2018-06-28T03:41:20.079Z,13.80
2018-06-28T03:42:23.582Z,13.80
2018-06-28T03:43:27.135Z,13.80
2018-06-28T03:44:30.723Z,13.80
2018-06-28T03:45:34.255Z,13.90
2018-06-28T03:46:38.114Z,13.90
2018-06-28T03:48:45.054Z,13.90
2018-06-28T03:49:48.569Z,13.90
2018-06-28T03:50:52.138Z,14.00
2018-06-28T03:51:55.671Z,14.00
2018-06-28T03:52:59.214Z,14.00
2018-06-28T03:54:02.834Z,14.10
2018-06-28T03:55:06.336Z,14.10
2018-06-28T03:56:09.928Z,14.20
2018-06-28T03:57:13.656Z,14.20
2018-06-28T03:58:17.271Z,14.30
2018-06-28T03:59:20.855Z,14.30
2018-06-28T04:00:24.471Z,14.40
2018-06-28T04:01:28.117Z,14.50
2018-06-28T04:02:31.644Z,14.80
2018-06-28T04:03:35.431Z,15.20
2018-06-28T04:04:38.946Z,15.60
2018-06-28T04:05:42.473Z,16.00
2018-06-28T04:06:46.048Z,16.50
2018-06-28T04:07:49.543Z,17.00
2018-06-28T04:08:53.370Z,17.40
2018-06-28T04:09:56.901Z,17.80
2018-06-28T04:11:00.384Z,18.30
2018-06-28T04:12:03.881Z,18.90
2018-06-28T04:13:07.393Z,19.20
2018-06-28T04:15:14.755Z,19.80
2018-06-28T04:16:18.577Z,20.10
2018-06-28T04:17:22.195Z,20.30
2018-06-28T04:18:25.767Z,20.60
2018-06-28T04:19:29.346Z,21.00
2018-06-28T04:20:32.934Z,21.10
2018-06-28T04:21:36.763Z,21.40
2018-06-28T04:22:40.380Z,21.70
2018-06-28T04:23:43.998Z,21.80
2018-06-28T04:25:50.812Z,22.20
2018-06-28T04:26:54.548Z,22.50
2018-06-28T04:27:58.161Z,22.70
2018-06-28T04:29:01.807Z,22.80
2018-06-28T04:30:06.215Z,23.00
2018-06-28T04:31:10.705Z,23.00
2018-06-28T04:32:14.573Z,23.20
2018-06-28T04:34:21.593Z,23.60
2018-06-28T04:35:25.261Z,23.80
2018-06-28T04:36:28.875Z,23.80
2018-06-28T04:37:32.883Z,23.80
2018-06-28T04:38:36.565Z,23.90
2018-06-28T04:39:40.183Z,24.10
2018-06-28T04:40:43.859Z,24.40
2018-06-28T04:41:47.649Z,24.50
2018-06-28T04:42:51.337Z,24.50
2018-06-28T04:43:55.036Z,24.50
2018-06-28T04:44:58.757Z,24.40
2018-06-28T04:46:02.474Z,24.20
2018-06-28T04:47:06.210Z,24.30
2018-06-28T04:48:10.229Z,24.20
2018-06-28T04:49:14.213Z,24.50
2018-06-28T04:50:18.414Z,24.80
2018-06-28T04:51:22.568Z,25.20
2018-06-28T04:52:26.258Z,25.40
2018-06-28T04:53:29.912Z,25.60
2018-06-28T04:54:33.527Z,25.90
2018-06-28T04:55:37.106Z,26.20
2018-06-28T04:56:40.690Z,26.60
2018-06-28T04:57:44.259Z,26.60
2018-06-28T04:58:47.893Z,26.70
2018-06-28T04:59:51.748Z,27.10
2018-06-28T05:01:58.787Z,27.50
2018-06-28T05:03:02.455Z,27.60
2018-06-28T05:04:06.170Z,28.00
2018-06-28T05:05:09.889Z,28.00
2018-06-28T05:06:13.985Z,27.60
2018-06-28T05:08:24.799Z,27.90
2018-06-28T05:09:28.574Z,28.10
2018-06-28T05:10:32.126Z,28.20
2018-06-28T05:11:35.656Z,28.20
2018-06-28T05:12:39.428Z,28.30
2018-06-28T05:13:44.283Z,28.00
2018-06-28T05:14:47.745Z,28.00
2018-06-28T05:15:51.838Z,28.10
2018-06-28T05:16:55.353Z,28.10
2018-06-28T05:17:58.924Z,28.50
2018-06-28T05:19:02.461Z,28.90
2018-06-28T05:20:06.251Z,29.00
2018-06-28T05:21:09.721Z,29.10
2018-06-28T05:22:13.964Z,29.10
2018-06-28T05:23:18.678Z,29.40
2018-06-28T05:24:22.135Z,29.60
2018-06-28T05:25:26.105Z,29.60
2018-06-28T05:26:29.637Z,29.90
2018-06-28T05:27:33.158Z,30.10
2018-06-28T05:28:36.700Z,30.50
2018-06-28T05:29:40.175Z,30.60
2018-06-28T05:30:43.738Z,30.70
2018-06-28T05:31:51.402Z,30.70
2018-06-28T05:32:54.942Z,30.20
2018-06-28T05:33:58.517Z,30.20
2018-06-28T05:35:02.068Z,30.40
2018-06-28T05:36:05.516Z,30.60
2018-06-28T05:37:09.030Z,30.60
2018-06-28T05:38:12.632Z,30.60
2018-06-28T05:39:16.459Z,30.80
2018-06-28T05:40:20.947Z,30.80
2018-06-28T05:41:25.195Z,31.00
2018-06-28T05:42:28.676Z,31.00
2018-06-28T05:43:32.222Z,31.30
2018-06-28T05:44:35.724Z,31.50
2018-06-28T05:45:39.249Z,31.80
2018-06-28T05:46:43.589Z,31.90
2018-06-28T05:47:47.140Z,32.00
2018-06-28T05:48:50.677Z,32.20
2018-06-28T05:49:54.742Z,32.10
2018-06-28T05:50:58.371Z,32.10
2018-06-28T05:52:01.865Z,32.00
2018-06-28T05:53:05.400Z,31.80
2018-06-28T05:54:08.944Z,32.00
2018-06-28T05:55:12.733Z,32.30
2018-06-28T05:57:19.480Z,31.50
2018-06-28T05:58:22.937Z,31.50
2018-06-28T05:59:26.437Z,31.70
2018-06-28T06:00:29.993Z,31.70
2018-06-28T06:01:33.897Z,31.80
2018-06-28T06:02:37.404Z,31.80
2018-06-28T06:03:40.925Z,32.00
2018-06-28T06:04:44.592Z,32.00
2018-06-28T06:05:48.125Z,32.40
2018-06-28T06:06:51.723Z,32.30
2018-06-28T06:07:55.236Z,32.60
2018-06-28T06:08:58.877Z,32.30
2018-06-28T06:10:02.439Z,31.80
2018-06-28T06:11:07.173Z,31.60
2018-06-28T06:12:10.902Z,31.00
2018-06-28T06:13:14.750Z,30.30
2018-06-28T06:14:18.386Z,30.20
2018-06-28T06:15:21.860Z,30.60
2018-06-28T06:16:25.643Z,31.00
2018-06-28T06:17:29.315Z,31.30
2018-06-28T06:18:32.924Z,31.50
2018-06-28T06:19:36.513Z,31.90
2018-06-28T06:20:39.992Z,31.90
2018-06-28T06:21:43.680Z,31.90
2018-06-28T06:22:47.265Z,31.40
2018-06-28T06:23:51.315Z,32.00
2018-06-28T06:26:01.160Z,32.40
2018-06-28T06:27:05.987Z,32.90
2018-06-28T06:28:12.027Z,33.20
2018-06-28T06:29:26.196Z,33.10
2018-06-28T06:30:30.838Z,33.40
2018-06-28T06:31:36.803Z,33.70
2018-06-28T06:32:42.561Z,33.50
2018-06-28T06:33:47.159Z,33.50
2018-06-28T06:34:52.751Z,33.60
2018-06-28T06:35:56.539Z,33.40
2018-06-28T06:37:00.116Z,32.90
2018-06-28T06:38:03.893Z,32.90
2018-06-28T06:39:10.097Z,33.10
2018-06-28T06:40:14.363Z,33.00
2018-06-28T06:42:21.601Z,33.50
2018-06-28T06:43:25.222Z,33.50
2018-06-28T06:44:28.712Z,33.10
2018-06-28T06:46:36.014Z,32.80
2018-06-28T06:47:39.544Z,32.10
2018-06-28T06:48:43.239Z,32.30
2018-06-28T06:49:46.754Z,32.50
2018-06-28T06:50:50.316Z,32.80
2018-06-28T06:51:53.821Z,32.90
2018-06-28T06:52:57.297Z,32.80
2018-06-28T06:54:00.920Z,32.60
2018-06-28T06:56:07.846Z,32.50
2018-06-28T06:57:11.478Z,32.90
2018-06-28T06:58:15.326Z,33.50
2018-06-28T06:59:18.933Z,33.90
2018-06-28T07:00:22.569Z,33.60
2018-06-28T07:01:26.116Z,33.60
2018-06-28T07:02:29.930Z,34.10
2018-06-28T07:03:34.667Z,34.00
2018-06-28T07:04:38.381Z,33.80
2018-06-28T07:05:43.012Z,33.90
2018-06-28T07:06:46.616Z,33.80
2018-06-28T07:07:50.406Z,32.50
2018-06-28T07:08:53.856Z,32.40
2018-06-28T07:09:57.345Z,33.00
2018-06-28T07:12:04.011Z,33.40
2018-06-28T07:13:07.637Z,33.70
2018-06-28T07:14:11.706Z,33.90
2018-06-28T07:15:15.239Z,34.30
2018-06-28T07:16:18.975Z,34.30
2018-06-28T07:17:22.638Z,34.40
2018-06-28T07:19:29.110Z,34.30
2018-06-28T07:20:33.349Z,34.20
2018-06-28T07:21:36.853Z,34.40
2018-06-28T07:22:40.398Z,34.30
2018-06-28T07:23:43.895Z,34.30
2018-06-28T07:24:47.381Z,34.00
2018-06-28T07:25:51.836Z,33.10
2018-06-28T07:26:55.772Z,33.30
2018-06-28T07:28:00.093Z,32.90
2018-06-28T07:29:03.712Z,33.40
2018-06-28T07:30:07.584Z,33.70
2018-06-28T07:31:11.109Z,34.20
2018-06-28T07:33:17.752Z,34.40
2018-06-28T07:34:21.293Z,34.60
2018-06-28T07:35:25.349Z,34.90
2018-06-28T07:36:28.910Z,34.90
2018-06-28T07:37:32.466Z,34.90
2018-06-28T07:38:36.118Z,35.40
2018-06-28T07:39:39.673Z,35.30
2018-06-28T07:40:43.376Z,35.20
2018-06-28T07:41:46.940Z,34.90
2018-06-28T07:42:50.887Z,34.80
2018-06-28T07:43:54.415Z,35.00
2018-06-28T07:44:59.040Z,34.90
2018-06-28T07:46:04.317Z,34.80
2018-06-28T07:47:07.876Z,34.70
2018-06-28T07:48:12.416Z,34.70
2018-06-28T07:49:15.958Z,34.10
2018-06-28T07:50:19.628Z,33.40
2018-06-28T07:51:23.330Z,33.40
2018-06-28T07:52:27.026Z,34.00
2018-06-28T07:53:30.577Z,34.40
2018-06-28T07:54:34.084Z,34.50
2018-06-28T07:55:37.890Z,34.30
2018-06-28T07:56:41.362Z,34.10
2018-06-28T07:57:44.931Z,33.90
2018-06-28T07:58:48.618Z,34.20
2018-06-28T07:59:52.229Z,34.10
2018-06-28T08:00:55.809Z,34.40
2018-06-28T08:01:59.353Z,34.50
2018-06-28T08:03:02.881Z,34.20
2018-06-28T08:04:06.773Z,34.70
2018-06-28T08:05:10.431Z,34.60
2018-06-28T08:06:14.017Z,34.40
2018-06-28T08:07:17.446Z,34.50
2018-06-28T08:08:21.481Z,34.70
2018-06-28T08:09:24.956Z,34.60
2018-06-28T08:10:28.487Z,34.50
2018-06-28T08:11:32.111Z,34.60
2018-06-28T08:12:35.622Z,34.10
2018-06-28T08:13:39.865Z,34.90
2018-06-28T08:14:43.439Z,34.60
2018-06-28T08:15:46.972Z,34.80
2018-06-28T08:16:50.678Z,34.10
2018-06-28T08:17:54.536Z,33.40
2018-06-28T08:18:58.210Z,33.00
2018-06-28T08:20:01.827Z,32.90
2018-06-28T08:21:05.309Z,33.20
2018-06-28T08:22:08.879Z,33.10
2018-06-28T08:23:12.613Z,32.80
2018-06-28T08:24:16.714Z,33.10
2018-06-28T08:25:21.648Z,32.90
2018-06-28T08:26:25.196Z,32.60
2018-06-28T08:27:28.808Z,32.20
2018-06-28T08:28:32.605Z,31.80
2018-06-28T08:29:36.052Z,32.00
2018-06-28T08:30:39.613Z,31.60
2018-06-28T08:31:43.151Z,31.40
2018-06-28T08:32:46.828Z,31.60
2018-06-28T08:33:50.819Z,31.70
2018-06-28T08:34:54.409Z,31.50
2018-06-28T08:35:58.158Z,31.70
2018-06-28T08:37:01.773Z,31.40
2018-06-28T08:38:05.474Z,31.50
2018-06-28T08:39:09.978Z,31.50
2018-06-28T08:40:13.758Z,31.40
2018-06-28T08:41:17.419Z,31.00
2018-06-28T08:42:21.763Z,30.90
2018-06-28T08:43:25.311Z,30.90
2018-06-28T08:44:29.001Z,30.90
2018-06-28T08:45:32.519Z,31.00
2018-06-28T08:46:36.896Z,31.20
2018-06-28T08:47:41.370Z,31.20
2018-06-28T08:48:45.561Z,31.40
2018-06-28T08:49:49.046Z,31.40
2018-06-28T08:50:52.627Z,31.80
2018-06-28T08:51:56.381Z,31.90
2018-06-28T08:52:59.941Z,31.80
2018-06-28T08:54:03.428Z,31.30
2018-06-28T08:55:06.950Z,30.80
2018-06-28T08:56:10.678Z,30.30
2018-06-28T08:57:14.893Z,30.60
2018-06-28T08:58:18.391Z,30.60
2018-06-28T08:59:22.378Z,30.20
2018-06-28T09:00:26.889Z,29.90
2018-06-28T09:01:30.355Z,30.00
2018-06-28T09:02:33.890Z,29.60
2018-06-28T09:03:37.443Z,29.60
2018-06-28T09:04:40.950Z,30.10
2018-06-28T09:05:51.771Z,29.80
2018-06-28T09:06:55.272Z,30.00
2018-06-28T09:07:58.786Z,30.00
2018-06-28T09:09:03.286Z,29.70
2018-06-28T09:10:06.885Z,29.60
2018-06-28T09:11:10.759Z,29.40
2018-06-28T09:12:14.471Z,29.50
2018-06-28T09:13:18.456Z,29.50
2018-06-28T09:14:22.606Z,29.80
2018-06-28T09:15:26.197Z,29.80
2018-06-28T09:16:29.793Z,29.80
2018-06-28T09:17:33.401Z,29.60
2018-06-28T09:18:37.002Z,29.60
2018-06-28T09:19:40.574Z,29.70
2018-06-28T09:20:45.147Z,29.80
2018-06-28T09:21:48.961Z,29.50
2018-06-28T09:22:52.609Z,29.70
2018-06-28T09:23:56.263Z,29.50
2018-06-28T09:25:00.456Z,29.20
2018-06-28T09:27:08.929Z,29.00
2018-06-28T09:28:12.998Z,28.90
2018-06-28T09:29:17.564Z,28.70
2018-06-28T09:30:21.315Z,28.40
2018-06-28T09:31:25.023Z,28.50
2018-06-28T09:32:29.206Z,28.30
2018-06-28T09:33:33.013Z,28.30
2018-06-28T09:34:37.216Z,28.30
2018-06-28T09:35:41.255Z,28.90
2018-06-28T09:36:44.761Z,29.30
2018-06-28T09:37:48.519Z,29.40
2018-06-28T09:38:51.985Z,29.60
2018-06-28T09:39:55.625Z,29.70
2018-06-28T09:40:59.158Z,29.60
2018-06-28T09:42:03.008Z,29.10
2018-06-28T09:43:07.141Z,28.70
2018-06-28T09:44:10.753Z,28.40
2018-06-28T09:45:14.318Z,28.30
2018-06-28T09:46:17.784Z,28.30
2018-06-28T09:47:21.381Z,28.10
2018-06-28T09:48:25.288Z,28.30
2018-06-28T09:49:28.778Z,28.50
2018-06-28T09:50:32.270Z,28.40
2018-06-28T09:51:35.904Z,28.30
2018-06-28T09:52:39.403Z,28.30
2018-06-28T09:53:43.641Z,28.50
2018-06-28T09:54:47.878Z,28.60
2018-06-28T09:55:51.434Z,28.50
2018-06-28T09:56:54.956Z,28.00
2018-06-28T09:57:58.508Z,28.20
2018-06-28T09:59:02.777Z,28.10
2018-06-28T10:00:06.891Z,27.90
2018-06-28T10:01:10.450Z,27.80
2018-06-28T10:02:14.018Z,27.70
2018-06-28T10:03:17.627Z,27.70
2018-06-28T10:04:21.142Z,27.50
2018-06-28T10:05:24.618Z,27.60
2018-06-28T10:06:28.250Z,27.60
2018-06-28T10:07:31.866Z,27.80
2018-06-28T10:08:35.409Z,28.00
2018-06-28T10:09:39.039Z,27.90
2018-06-28T10:10:42.800Z,27.70
2018-06-28T10:11:47.327Z,27.70
2018-06-28T10:12:50.846Z,27.80
2018-06-28T10:13:54.428Z,27.60
2018-06-28T10:16:01.633Z,27.70
2018-06-28T10:17:05.828Z,27.70
2018-06-28T10:18:09.442Z,27.90
2018-06-28T10:19:12.945Z,27.80
2018-06-28T10:20:17.284Z,27.90
2018-06-28T10:21:20.738Z,27.70
2018-06-28T10:22:25.577Z,27.70
2018-06-28T10:23:29.365Z,27.70
2018-06-28T10:24:32.844Z,27.80
2018-06-28T10:25:36.533Z,27.80
2018-06-28T10:26:40.107Z,27.70
2018-06-28T10:27:43.581Z,27.60
2018-06-28T10:28:47.217Z,27.30
2018-06-28T10:29:50.873Z,27.00
2018-06-28T10:30:54.390Z,26.80
2018-06-28T10:31:57.944Z,26.60
2018-06-28T10:33:01.468Z,26.70
2018-06-28T10:34:05.035Z,26.70
2018-06-28T10:35:08.507Z,26.80
2018-06-28T10:36:12.677Z,26.80
2018-06-28T10:37:17.203Z,26.70
2018-06-28T10:38:20.805Z,26.60
2018-06-28T10:39:24.551Z,26.40
2018-06-28T10:40:28.636Z,26.40
2018-06-28T10:41:32.270Z,26.40
2018-06-28T10:42:35.840Z,26.40
2018-06-28T10:43:39.335Z,26.60
2018-06-28T10:44:42.851Z,26.60
2018-06-28T10:45:46.439Z,26.40
2018-06-28T10:46:49.977Z,26.20
2018-06-28T10:47:53.579Z,26.30
2018-06-28T10:48:57.121Z,26.30
2018-06-28T10:50:01.477Z,26.20
2018-06-28T10:51:05.129Z,26.30
2018-06-28T10:52:08.765Z,26.40
2018-06-28T10:53:12.590Z,26.40
2018-06-28T10:54:16.136Z,26.40
2018-06-28T10:55:19.844Z,26.60
2018-06-28T10:56:23.465Z,26.60
2018-06-28T10:57:26.978Z,26.70
2018-06-28T10:58:30.492Z,26.80
2018-06-28T10:59:34.173Z,26.90
2018-06-28T11:00:38.394Z,26.80
2018-06-28T11:01:42.139Z,26.70
2018-06-28T11:02:46.133Z,26.60
2018-06-28T11:03:49.698Z,26.50
2018-06-28T11:04:53.533Z,26.50
2018-06-28T11:05:57.073Z,26.60
2018-06-28T11:07:00.779Z,26.50
2018-06-28T11:08:05.649Z,26.30
2018-06-28T11:09:10.368Z,26.30
2018-06-28T11:10:14.081Z,26.20
2018-06-28T11:11:17.804Z,26.20
2018-06-28T11:13:24.733Z,26.10
2018-06-28T11:14:28.245Z,26.00
2018-06-28T11:15:31.873Z,26.20
2018-06-28T11:16:35.698Z,26.30
2018-06-28T11:18:42.516Z,26.40
2018-06-28T11:19:46.088Z,26.40
2018-06-28T11:20:49.793Z,26.40
2018-06-28T11:21:53.842Z,26.40
2018-06-28T11:23:01.296Z,26.50
2018-06-28T11:24:05.115Z,26.40
2018-06-28T11:25:09.746Z,26.30
2018-06-28T11:26:13.367Z,26.10
2018-06-28T11:27:17.168Z,26.10
2018-06-28T11:28:21.268Z,26.20
2018-06-28T11:29:25.063Z,26.10
2018-06-28T11:30:29.333Z,26.00
2018-06-28T11:31:32.845Z,25.90
2018-06-28T11:32:36.411Z,25.80
2018-06-28T11:33:39.878Z,25.80
2018-06-28T11:34:43.346Z,25.90
2018-06-28T11:35:46.830Z,25.90
2018-06-28T11:36:50.417Z,25.90
2018-06-28T11:37:53.886Z,25.90
2018-06-28T11:38:57.888Z,26.00
2018-06-28T11:40:01.498Z,25.90
2018-06-28T11:41:05.076Z,25.90
2018-06-28T11:42:08.521Z,25.90
2018-06-28T11:43:12.146Z,25.80
2018-06-28T11:44:15.595Z,25.80
2018-06-28T11:45:19.181Z,25.70
2018-06-28T11:46:22.711Z,25.60
2018-06-28T11:47:26.638Z,25.60
2018-06-28T11:48:30.125Z,25.60
2018-06-28T11:49:33.765Z,25.60
2018-06-28T11:50:37.330Z,25.60
2018-06-28T11:51:40.965Z,25.70
2018-06-28T11:52:44.454Z,25.70
2018-06-28T11:53:47.913Z,25.70
2018-06-28T11:54:51.933Z,25.80
2018-06-28T11:55:55.845Z,25.80
2018-06-28T11:57:00.179Z,26.00
2018-06-28T11:58:04.610Z,25.80
2018-06-28T11:59:09.410Z,25.90
2018-06-28T12:00:15.607Z,25.80
2018-06-28T12:01:19.279Z,25.80
2018-06-28T12:02:22.982Z,25.80
2018-06-28T12:03:26.774Z,25.80
2018-06-28T12:04:30.408Z,25.80
2018-06-28T12:05:34.172Z,25.80
2018-06-28T12:06:37.848Z,25.70
2018-06-28T12:07:41.634Z,25.70
2018-06-28T12:08:45.242Z,25.80
2018-06-28T12:09:49.176Z,25.90
2018-06-28T12:10:52.713Z,26.00
2018-06-28T12:11:56.433Z,26.20
2018-06-28T12:13:00.112Z,26.20
2018-06-28T12:14:03.734Z,26.30
2018-06-28T12:15:07.482Z,26.40
2018-06-28T12:16:11.167Z,26.40
2018-06-28T12:17:14.815Z,26.20
2018-06-28T12:18:18.395Z,26.30
2018-06-28T12:19:21.973Z,26.30
2018-06-28T12:20:25.637Z,26.20
2018-06-28T12:21:30.225Z,26.20
2018-06-28T12:22:34.619Z,26.10
2018-06-28T12:23:38.171Z,26.20
2018-06-28T12:24:41.728Z,26.20
2018-06-28T12:25:46.427Z,26.30
2018-06-28T12:26:50.082Z,26.40
2018-06-28T12:27:54.270Z,26.30
2018-06-28T12:28:57.986Z,26.30
2018-06-28T12:30:01.754Z,26.20
2018-06-28T12:31:05.415Z,26.30
2018-06-28T12:32:09.329Z,26.30
2018-06-28T12:33:13.204Z,26.40
2018-06-28T12:34:16.731Z,26.30
2018-06-28T12:35:20.874Z,26.40
2018-06-28T12:36:24.478Z,26.40
2018-06-28T12:37:28.002Z,26.50
2018-06-28T12:38:32.731Z,26.60
2018-06-28T12:39:37.004Z,26.60
2018-06-28T12:40:40.608Z,26.60
2018-06-28T12:41:44.106Z,26.60
2018-06-28T12:42:47.620Z,26.70
2018-06-28T12:43:51.331Z,26.50
2018-06-28T12:44:55.292Z,26.70
2018-06-28T12:46:00.005Z,26.70
2018-06-28T12:47:41.425Z,26.80
2018-06-28T12:48:44.995Z,26.90
2018-06-28T12:49:48.500Z,26.80
2018-06-28T12:50:52.199Z,26.80
2018-06-28T12:53:03.079Z,26.80
2018-06-28T12:54:07.204Z,26.80
2018-06-28T12:55:11.306Z,26.90
2018-06-28T12:56:20.693Z,26.80
2018-06-28T12:57:24.241Z,26.70
2018-06-28T12:58:28.525Z,26.70
2018-06-28T12:59:32.651Z,26.80
2018-06-28T13:00:36.654Z,26.80
2018-06-28T13:01:40.149Z,26.70
2018-06-28T13:02:43.800Z,26.70
2018-06-28T13:03:47.630Z,26.70
2018-06-28T13:04:51.713Z,26.70
2018-06-28T13:05:55.885Z,26.70
2018-06-28T13:07:00.064Z,26.70
2018-06-28T13:08:03.675Z,26.60
2018-06-28T13:09:08.961Z,26.50
2018-06-28T13:10:14.955Z,26.50
2018-06-28T13:11:18.505Z,26.40
2018-06-28T13:12:22.097Z,26.50
2018-06-28T13:13:25.844Z,26.50
2018-06-28T13:14:30.213Z,26.50
2018-06-28T13:15:33.676Z,26.50
2018-06-28T13:16:37.263Z,26.40
2018-06-28T13:17:41.544Z,26.30
2018-06-28T13:18:46.260Z,26.30
2018-06-28T13:19:49.780Z,26.30
2018-06-28T13:20:53.622Z,26.40
2018-06-28T13:21:57.129Z,26.30
2018-06-28T13:23:00.664Z,26.40
2018-06-28T13:24:04.226Z,26.50
2018-06-28T13:25:09.272Z,26.50
2018-06-28T13:26:14.300Z,26.50
2018-06-28T13:27:18.497Z,26.50
2018-06-28T13:28:22.035Z,26.50
2018-06-28T13:29:26.055Z,26.60
2018-06-28T13:30:30.089Z,26.80
2018-06-28T13:31:33.862Z,26.90
2018-06-28T13:32:37.863Z,26.90
2018-06-28T13:33:41.494Z,27.00
2018-06-28T13:34:45.378Z,26.90
2018-06-28T13:35:50.199Z,26.90
2018-06-28T13:36:54.421Z,26.80
2018-06-28T13:37:58.019Z,26.80
2018-06-28T13:39:01.751Z,26.70
2018-06-28T13:40:06.037Z,26.70
2018-06-28T13:41:10.112Z,26.70
2018-06-28T13:42:13.920Z,26.80
2018-06-28T13:43:18.191Z,26.80
2018-06-28T13:44:22.339Z,26.80
2018-06-28T13:45:25.911Z,26.90
2018-06-28T13:46:29.654Z,26.90
2018-06-28T13:47:33.241Z,27.00
2018-06-28T13:48:38.165Z,26.90
2018-06-28T13:49:42.402Z,26.90
2018-06-28T13:50:46.606Z,26.90
2018-06-28T13:51:51.174Z,26.80
2018-06-28T13:52:55.149Z,26.70
2018-06-28T13:53:58.869Z,26.80
2018-06-28T13:55:02.528Z,26.70
2018-06-28T13:56:06.911Z,26.70
2018-06-28T13:57:10.637Z,26.60
2018-06-28T13:58:14.360Z,26.60
2018-06-28T13:59:18.522Z,26.80
2018-06-28T14:00:22.358Z,26.80
2018-06-28T14:01:25.969Z,26.70
2018-06-28T14:02:29.618Z,26.60
2018-06-28T14:03:33.734Z,26.60
2018-06-28T14:04:37.311Z,26.60
2018-06-28T14:05:41.528Z,26.60
2018-06-28T14:06:45.060Z,26.50
2018-06-28T14:07:48.625Z,26.60